sensor_id;sensor_type;location;lat;lon;timestamp;P1;durP1;ratioP1;P2;durP2;ratioP2
52668;SDS011;59898;52.786;6.892;2022-09-23T00:01:57;11.23;;;8.32;;
52668;SDS011;59898;52.786;6.892;2022-09-23T00:05:17;12.20;;;8.25;;
52668;SDS011;59898;52.786;6.892;2022-09-23T00:08:39;10.40;;;8.23;;
52668;SDS011;59898;52.786;6.892;2022-09-23T00:12:00;17.60;;;8.93;;
52668;SDS011;59898;52.786;6.892;2022-09-23T00:15:21;10.77;;;8.35;;
52668;SDS011;59898;52.786;6.892;2022-09-23T00:18:44;14.63;;;9.52;;
52668;SDS011;59898;52.786;6.892;2022-09-23T00:22:05;10.45;;;9.27;;
52668;SDS011;59898;52.786;6.892;2022-09-23T00:25:26;13.20;;;9.70;;
52668;SDS011;59898;52.786;6.892;2022-09-23T00:28:49;14.20;;;9.82;;
52668;SDS011;59898;52.786;6.892;2022-09-23T00:32:10;11.32;;;8.68;;
52668;SDS011;59898;52.786;6.892;2022-09-23T00:35:30;11.13;;;8.73;;
52668;SDS011;59898;52.786;6.892;2022-09-23T00:38:51;10.57;;;8.63;;
52668;SDS011;59898;52.786;6.892;2022-09-23T00:42:14;13.63;;;9.55;;
52668;SDS011;59898;52.786;6.892;2022-09-23T00:45:36;11.27;;;8.60;;
52668;SDS011;59898;52.786;6.892;2022-09-23T00:48:59;13.95;;;9.13;;
52668;SDS011;59898;52.786;6.892;2022-09-23T00:52:24;13.75;;;9.77;;
52668;SDS011;59898;52.786;6.892;2022-09-23T00:55:49;10.48;;;9.43;;
52668;SDS011;59898;52.786;6.892;2022-09-23T00:59:15;12.68;;;9.52;;
52668;SDS011;59898;52.786;6.892;2022-09-23T01:02:35;11.40;;;9.13;;
52668;SDS011;59898;52.786;6.892;2022-09-23T01:05:56;11.02;;;9.15;;
52668;SDS011;59898;52.786;6.892;2022-09-23T01:09:18;10.23;;;9.20;;
52668;SDS011;59898;52.786;6.892;2022-09-23T01:20:04;13.35;;;9.32;;
52668;SDS011;59898;52.786;6.892;2022-09-23T01:27:25;10.48;;;9.15;;
52668;SDS011;59898;52.786;6.892;2022-09-23T01:34:40;10.82;;;8.70;;
52668;SDS011;59898;52.786;6.892;2022-09-23T01:38:40;13.77;;;8.88;;
52668;SDS011;59898;52.786;6.892;2022-09-23T01:45:50;11.43;;;10.23;;
52668;SDS011;59898;52.786;6.892;2022-09-23T01:49:17;11.13;;;9.30;;
52668;SDS011;59898;52.786;6.892;2022-09-23T01:52:44;14.07;;;9.45;;
52668;SDS011;59898;52.786;6.892;2022-09-23T01:56:27;12.07;;;9.98;;
52668;SDS011;59898;52.786;6.892;2022-09-23T01:59:59;10.57;;;9.23;;
52668;SDS011;59898;52.786;6.892;2022-09-23T02:03:27;10.90;;;9.15;;
52668;SDS011;59898;52.786;6.892;2022-09-23T02:06:55;11.25;;;8.77;;
52668;SDS011;59898;52.786;6.892;2022-09-23T02:10:33;12.60;;;8.50;;
52668;SDS011;59898;52.786;6.892;2022-09-23T02:14:03;11.95;;;9.20;;
52668;SDS011;59898;52.786;6.892;2022-09-23T02:18:12;11.35;;;8.65;;
52668;SDS011;59898;52.786;6.892;2022-09-23T02:21:18;12.07;;;10.43;;
52668;SDS011;59898;52.786;6.892;2022-09-23T02:24:44;15.65;;;10.13;;
52668;SDS011;59898;52.786;6.892;2022-09-23T02:28:09;13.50;;;10.10;;
52668;SDS011;59898;52.786;6.892;2022-09-23T02:31:38;11.48;;;9.88;;
52668;SDS011;59898;52.786;6.892;2022-09-23T02:35:24;10.80;;;9.73;;
52668;SDS011;59898;52.786;6.892;2022-09-23T02:38:55;12.13;;;8.77;;
52668;SDS011;59898;52.786;6.892;2022-09-23T02:42:23;13.23;;;9.70;;
52668;SDS011;59898;52.786;6.892;2022-09-23T02:45:57;11.85;;;10.27;;
52668;SDS011;59898;52.786;6.892;2022-09-23T02:49:20;13.10;;;9.45;;
52668;SDS011;59898;52.786;6.892;2022-09-23T02:52:42;11.30;;;9.23;;
52668;SDS011;59898;52.786;6.892;2022-09-23T02:56:16;9.95;;;8.77;;
52668;SDS011;59898;52.786;6.892;2022-09-23T02:59:39;10.48;;;8.70;;
52668;SDS011;59898;52.786;6.892;2022-09-23T03:03:04;8.82;;;8.02;;
52668;SDS011;59898;52.786;6.892;2022-09-23T03:10:21;9.65;;;8.70;;
52668;SDS011;59898;52.786;6.892;2022-09-23T03:17:37;11.13;;;9.43;;
52668;SDS011;59898;52.786;6.892;2022-09-23T03:21:06;10.23;;;9.23;;
52668;SDS011;59898;52.786;6.892;2022-09-23T03:24:35;9.82;;;8.82;;
52668;SDS011;59898;52.786;6.892;2022-09-23T03:27:58;11.70;;;9.23;;
52668;SDS011;59898;52.786;6.892;2022-09-23T03:31:20;9.93;;;8.93;;
52668;SDS011;59898;52.786;6.892;2022-09-23T03:34:41;10.32;;;8.85;;
52668;SDS011;59898;52.786;6.892;2022-09-23T03:38:07;13.23;;;9.68;;
52668;SDS011;59898;52.786;6.892;2022-09-23T03:41:36;11.07;;;9.98;;
52668;SDS011;59898;52.786;6.892;2022-09-23T03:45:04;15.48;;;9.70;;
52668;SDS011;59898;52.786;6.892;2022-09-23T03:48:30;10.55;;;9.45;;
52668;SDS011;59898;52.786;6.892;2022-09-23T03:51:50;13.23;;;9.73;;
52668;SDS011;59898;52.786;6.892;2022-09-23T03:55:11;11.30;;;10.02;;
52668;SDS011;59898;52.786;6.892;2022-09-23T03:58:32;13.65;;;10.55;;
52668;SDS011;59898;52.786;6.892;2022-09-23T04:01:53;13.82;;;10.50;;
52668;SDS011;59898;52.786;6.892;2022-09-23T04:05:14;10.77;;;9.68;;
52668;SDS011;59898;52.786;6.892;2022-09-23T04:08:35;12.35;;;11.05;;
52668;SDS011;59898;52.786;6.892;2022-09-23T04:11:56;11.65;;;9.98;;
52668;SDS011;59898;52.786;6.892;2022-09-23T04:15:17;11.15;;;9.63;;
52668;SDS011;59898;52.786;6.892;2022-09-23T04:18:37;15.00;;;11.05;;
52668;SDS011;59898;52.786;6.892;2022-09-23T04:21:58;12.48;;;11.27;;
52668;SDS011;59898;52.786;6.892;2022-09-23T04:25:19;18.55;;;11.85;;
52668;SDS011;59898;52.786;6.892;2022-09-23T04:28:39;11.55;;;10.35;;
52668;SDS011;59898;52.786;6.892;2022-09-23T04:32:00;11.85;;;10.70;;
52668;SDS011;59898;52.786;6.892;2022-09-23T04:35:21;10.75;;;9.75;;
52668;SDS011;59898;52.786;6.892;2022-09-23T04:38:42;11.32;;;10.23;;
52668;SDS011;59898;52.786;6.892;2022-09-23T04:42:04;11.63;;;9.75;;
52668;SDS011;59898;52.786;6.892;2022-09-23T04:45:24;12.18;;;9.40;;
52668;SDS011;59898;52.786;6.892;2022-09-23T04:48:45;12.98;;;10.50;;
52668;SDS011;59898;52.786;6.892;2022-09-23T04:52:06;12.63;;;10.63;;
52668;SDS011;59898;52.786;6.892;2022-09-23T04:55:27;13.20;;;10.32;;
52668;SDS011;59898;52.786;6.892;2022-09-23T04:58:48;14.50;;;10.95;;
52668;SDS011;59898;52.786;6.892;2022-09-23T05:02:09;13.85;;;10.43;;
52668;SDS011;59898;52.786;6.892;2022-09-23T05:05:31;12.93;;;11.55;;
52668;SDS011;59898;52.786;6.892;2022-09-23T05:08:52;12.05;;;10.93;;
52668;SDS011;59898;52.786;6.892;2022-09-23T05:12:14;12.38;;;10.40;;
52668;SDS011;59898;52.786;6.892;2022-09-23T05:15:35;12.07;;;10.52;;
52668;SDS011;59898;52.786;6.892;2022-09-23T05:18:55;12.02;;;10.48;;
52668;SDS011;59898;52.786;6.892;2022-09-23T05:22:17;12.18;;;10.68;;
52668;SDS011;59898;52.786;6.892;2022-09-23T05:25:37;12.00;;;9.95;;
52668;SDS011;59898;52.786;6.892;2022-09-23T05:28:58;12.93;;;11.60;;
52668;SDS011;59898;52.786;6.892;2022-09-23T05:32:19;12.80;;;11.02;;
52668;SDS011;59898;52.786;6.892;2022-09-23T05:35:45;13.70;;;11.40;;
52668;SDS011;59898;52.786;6.892;2022-09-23T05:39:06;13.40;;;11.25;;
52668;SDS011;59898;52.786;6.892;2022-09-23T05:42:27;13.30;;;11.07;;
52668;SDS011;59898;52.786;6.892;2022-09-23T05:45:48;14.38;;;10.70;;
52668;SDS011;59898;52.786;6.892;2022-09-23T05:49:09;12.77;;;11.48;;
52668;SDS011;59898;52.786;6.892;2022-09-23T05:52:30;13.40;;;12.00;;
52668;SDS011;59898;52.786;6.892;2022-09-23T05:55:54;13.55;;;10.63;;
52668;SDS011;59898;52.786;6.892;2022-09-23T05:59:16;13.10;;;11.70;;
52668;SDS011;59898;52.786;6.892;2022-09-23T06:02:36;14.70;;;11.25;;
52668;SDS011;59898;52.786;6.892;2022-09-23T06:05:57;12.00;;;10.60;;
52668;SDS011;59898;52.786;6.892;2022-09-23T06:09:18;11.77;;;10.55;;
52668;SDS011;59898;52.786;6.892;2022-09-23T06:12:38;17.45;;;11.50;;
52668;SDS011;59898;52.786;6.892;2022-09-23T06:16:00;12.52;;;11.13;;
52668;SDS011;59898;52.786;6.892;2022-09-23T06:19:21;11.88;;;10.65;;
52668;SDS011;59898;52.786;6.892;2022-09-23T06:22:41;12.27;;;10.75;;
52668;SDS011;59898;52.786;6.892;2022-09-23T06:26:03;17.65;;;10.48;;
52668;SDS011;59898;52.786;6.892;2022-09-23T06:29:25;15.52;;;10.15;;
52668;SDS011;59898;52.786;6.892;2022-09-23T06:32:50;13.13;;;9.95;;
52668;SDS011;59898;52.786;6.892;2022-09-23T06:36:15;11.07;;;9.98;;
52668;SDS011;59898;52.786;6.892;2022-09-23T06:39:36;10.75;;;9.63;;
52668;SDS011;59898;52.786;6.892;2022-09-23T06:42:57;11.73;;;9.68;;
52668;SDS011;59898;52.786;6.892;2022-09-23T06:46:19;13.25;;;10.50;;
52668;SDS011;59898;52.786;6.892;2022-09-23T06:49:40;12.90;;;10.43;;
52668;SDS011;59898;52.786;6.892;2022-09-23T06:53:00;12.73;;;9.90;;
52668;SDS011;59898;52.786;6.892;2022-09-23T06:56:22;16.48;;;9.32;;
52668;SDS011;59898;52.786;6.892;2022-09-23T06:59:43;13.48;;;10.27;;
52668;SDS011;59898;52.786;6.892;2022-09-23T07:03:07;10.57;;;9.55;;
52668;SDS011;59898;52.786;6.892;2022-09-23T07:06:29;11.70;;;9.75;;
52668;SDS011;59898;52.786;6.892;2022-09-23T07:09:49;12.55;;;10.20;;
52668;SDS011;59898;52.786;6.892;2022-09-23T07:13:10;13.07;;;10.02;;
52668;SDS011;59898;52.786;6.892;2022-09-23T07:16:31;13.90;;;9.63;;
52668;SDS011;59898;52.786;6.892;2022-09-23T07:19:52;10.98;;;9.02;;
52668;SDS011;59898;52.786;6.892;2022-09-23T07:23:17;11.75;;;9.05;;
52668;SDS011;59898;52.786;6.892;2022-09-23T07:26:37;12.40;;;8.60;;
52668;SDS011;59898;52.786;6.892;2022-09-23T07:29:58;14.27;;;9.98;;
52668;SDS011;59898;52.786;6.892;2022-09-23T07:33:19;15.23;;;9.20;;
52668;SDS011;59898;52.786;6.892;2022-09-23T07:36:40;13.82;;;9.55;;
52668;SDS011;59898;52.786;6.892;2022-09-23T07:40:01;16.08;;;9.15;;
52668;SDS011;59898;52.786;6.892;2022-09-23T07:43:22;10.30;;;9.20;;
52668;SDS011;59898;52.786;6.892;2022-09-23T07:46:42;11.57;;;8.85;;
52668;SDS011;59898;52.786;6.892;2022-09-23T07:50:04;15.43;;;9.05;;
52668;SDS011;59898;52.786;6.892;2022-09-23T07:53:25;10.38;;;9.32;;
52668;SDS011;59898;52.786;6.892;2022-09-23T07:56:46;13.65;;;10.07;;
52668;SDS011;59898;52.786;6.892;2022-09-23T08:00:07;9.27;;;8.38;;
52668;SDS011;59898;52.786;6.892;2022-09-23T08:03:28;13.30;;;9.32;;
52668;SDS011;59898;52.786;6.892;2022-09-23T08:06:50;12.05;;;8.90;;
52668;SDS011;59898;52.786;6.892;2022-09-23T08:10:16;14.48;;;8.85;;
52668;SDS011;59898;52.786;6.892;2022-09-23T08:13:40;11.38;;;8.13;;
52668;SDS011;59898;52.786;6.892;2022-09-23T08:17:01;12.38;;;9.73;;
52668;SDS011;59898;52.786;6.892;2022-09-23T08:20:21;12.45;;;8.85;;
52668;SDS011;59898;52.786;6.892;2022-09-23T08:24:00;11.75;;;9.27;;
52668;SDS011;59898;52.786;6.892;2022-09-23T08:27:21;10.80;;;8.45;;
52668;SDS011;59898;52.786;6.892;2022-09-23T08:30:42;11.52;;;9.50;;
52668;SDS011;59898;52.786;6.892;2022-09-23T08:34:04;13.27;;;8.45;;
52668;SDS011;59898;52.786;6.892;2022-09-23T08:37:25;13.32;;;10.90;;
52668;SDS011;59898;52.786;6.892;2022-09-23T08:40:47;11.25;;;8.50;;
52668;SDS011;59898;52.786;6.892;2022-09-23T08:44:10;10.80;;;8.10;;
52668;SDS011;59898;52.786;6.892;2022-09-23T08:51:03;11.23;;;8.57;;
52668;SDS011;59898;52.786;6.892;2022-09-23T08:54:26;15.38;;;8.82;;
52668;SDS011;59898;52.786;6.892;2022-09-23T09:04:57;10.20;;;8.48;;
52668;SDS011;59898;52.786;6.892;2022-09-23T09:08:24;12.25;;;10.30;;
52668;SDS011;59898;52.786;6.892;2022-09-23T09:11:51;13.73;;;8.70;;
52668;SDS011;59898;52.786;6.892;2022-09-23T09:15:21;13.20;;;9.25;;
52668;SDS011;59898;52.786;6.892;2022-09-23T09:18:51;9.25;;;8.32;;
52668;SDS011;59898;52.786;6.892;2022-09-23T09:22:16;9.32;;;8.02;;
52668;SDS011;59898;52.786;6.892;2022-09-23T09:29:13;11.65;;;9.50;;
52668;SDS011;59898;52.786;6.892;2022-09-23T09:32:46;12.70;;;9.98;;
52668;SDS011;59898;52.786;6.892;2022-09-23T09:36:18;13.23;;;10.07;;
52668;SDS011;59898;52.786;6.892;2022-09-23T09:39:49;12.63;;;9.20;;
52668;SDS011;59898;52.786;6.892;2022-09-23T09:43:14;13.85;;;8.13;;
52668;SDS011;59898;52.786;6.892;2022-09-23T09:50:18;12.77;;;9.00;;
52668;SDS011;59898;52.786;6.892;2022-09-23T09:54:14;10.18;;;8.88;;
52668;SDS011;59898;52.786;6.892;2022-09-23T09:57:58;9.60;;;8.57;;
52668;SDS011;59898;52.786;6.892;2022-09-23T10:01:24;14.10;;;9.75;;
52668;SDS011;59898;52.786;6.892;2022-09-23T10:05:00;15.30;;;9.30;;
52668;SDS011;59898;52.786;6.892;2022-09-23T10:08:32;12.25;;;9.10;;
52668;SDS011;59898;52.786;6.892;2022-09-23T10:12:09;14.23;;;8.02;;
52668;SDS011;59898;52.786;6.892;2022-09-23T10:15:40;11.25;;;7.55;;
52668;SDS011;59898;52.786;6.892;2022-09-23T10:19:02;11.98;;;8.15;;
52668;SDS011;59898;52.786;6.892;2022-09-23T10:22:32;10.35;;;8.15;;
52668;SDS011;59898;52.786;6.892;2022-09-23T10:26:02;18.17;;;12.38;;
52668;SDS011;59898;52.786;6.892;2022-09-23T10:32:53;9.52;;;8.00;;
52668;SDS011;59898;52.786;6.892;2022-09-23T10:36:16;12.05;;;7.35;;
52668;SDS011;59898;52.786;6.892;2022-09-23T10:39:37;13.02;;;8.52;;
52668;SDS011;59898;52.786;6.892;2022-09-23T10:47:35;13.15;;;8.73;;
52668;SDS011;59898;52.786;6.892;2022-09-23T10:51:19;9.93;;;8.00;;
52668;SDS011;59898;52.786;6.892;2022-09-23T11:05:25;12.10;;;9.10;;
52668;SDS011;59898;52.786;6.892;2022-09-23T11:09:18;9.90;;;8.43;;
52668;SDS011;59898;52.786;6.892;2022-09-23T11:24:10;11.88;;;8.52;;
52668;SDS011;59898;52.786;6.892;2022-09-23T11:27:51;12.45;;;9.38;;
52668;SDS011;59898;52.786;6.892;2022-09-23T11:31:45;9.95;;;8.93;;
52668;SDS011;59898;52.786;6.892;2022-09-23T11:35:26;10.45;;;8.68;;
52668;SDS011;59898;52.786;6.892;2022-09-23T11:38:52;12.00;;;8.93;;
52668;SDS011;59898;52.786;6.892;2022-09-23T11:42:20;9.80;;;8.68;;
52668;SDS011;59898;52.786;6.892;2022-09-23T11:45:46;11.23;;;8.10;;
52668;SDS011;59898;52.786;6.892;2022-09-23T11:49:18;9.30;;;8.40;;
52668;SDS011;59898;52.786;6.892;2022-09-23T11:53:35;9.38;;;8.40;;
52668;SDS011;59898;52.786;6.892;2022-09-23T11:56:53;12.15;;;9.07;;
52668;SDS011;59898;52.786;6.892;2022-09-23T12:00:20;11.95;;;8.30;;
52668;SDS011;59898;52.786;6.892;2022-09-23T12:03:44;13.50;;;9.18;;
52668;SDS011;59898;52.786;6.892;2022-09-23T12:25:32;9.57;;;7.85;;
52668;SDS011;59898;52.786;6.892;2022-09-23T12:29:05;11.63;;;8.38;;
52668;SDS011;59898;52.786;6.892;2022-09-23T12:32:29;9.68;;;7.90;;
52668;SDS011;59898;52.786;6.892;2022-09-23T12:35:51;12.05;;;9.23;;
52668;SDS011;59898;52.786;6.892;2022-09-23T12:42:46;14.63;;;9.90;;
52668;SDS011;59898;52.786;6.892;2022-09-23T12:46:18;10.52;;;8.05;;
52668;SDS011;59898;52.786;6.892;2022-09-23T12:49:47;10.40;;;8.05;;
52668;SDS011;59898;52.786;6.892;2022-09-23T13:00:24;9.85;;;7.28;;
52668;SDS011;59898;52.786;6.892;2022-09-23T13:03:52;7.97;;;7.03;;
52668;SDS011;59898;52.786;6.892;2022-09-23T13:07:33;13.25;;;8.10;;
52668;SDS011;59898;52.786;6.892;2022-09-23T13:10:59;9.27;;;7.50;;
52668;SDS011;59898;52.786;6.892;2022-09-23T13:14:21;12.25;;;7.60;;
52668;SDS011;59898;52.786;6.892;2022-09-23T13:17:43;11.27;;;8.57;;
52668;SDS011;59898;52.786;6.892;2022-09-23T13:21:07;13.55;;;8.07;;
52668;SDS011;59898;52.786;6.892;2022-09-23T13:24:38;11.53;;;8.17;;
52668;SDS011;59898;52.786;6.892;2022-09-23T13:28:03;10.82;;;7.93;;
52668;SDS011;59898;52.786;6.892;2022-09-23T13:31:37;8.07;;;6.72;;
52668;SDS011;59898;52.786;6.892;2022-09-23T13:38:37;8.80;;;7.53;;
52668;SDS011;59898;52.786;6.892;2022-09-23T13:41:59;11.52;;;7.95;;
52668;SDS011;59898;52.786;6.892;2022-09-23T13:45:23;8.70;;;7.80;;
52668;SDS011;59898;52.786;6.892;2022-09-23T13:48:46;11.93;;;7.10;;
52668;SDS011;59898;52.786;6.892;2022-09-23T13:52:25;10.02;;;7.82;;
52668;SDS011;59898;52.786;6.892;2022-09-23T13:59:27;10.38;;;8.30;;
52668;SDS011;59898;52.786;6.892;2022-09-23T14:02:50;13.90;;;7.68;;
52668;SDS011;59898;52.786;6.892;2022-09-23T14:06:14;11.75;;;7.57;;
52668;SDS011;59898;52.786;6.892;2022-09-23T14:09:35;8.65;;;7.32;;
52668;SDS011;59898;52.786;6.892;2022-09-23T14:13:01;10.02;;;8.05;;
52668;SDS011;59898;52.786;6.892;2022-09-23T14:16:22;9.23;;;7.95;;
52668;SDS011;59898;52.786;6.892;2022-09-23T14:19:45;9.85;;;7.57;;
52668;SDS011;59898;52.786;6.892;2022-09-23T14:23:10;11.90;;;7.75;;
52668;SDS011;59898;52.786;6.892;2022-09-23T14:26:35;10.80;;;8.48;;
52668;SDS011;59898;52.786;6.892;2022-09-23T14:29:56;14.60;;;8.85;;
52668;SDS011;59898;52.786;6.892;2022-09-23T14:33:24;9.65;;;7.20;;
52668;SDS011;59898;52.786;6.892;2022-09-23T14:36:51;10.55;;;6.50;;
52668;SDS011;59898;52.786;6.892;2022-09-23T14:40:34;9.30;;;7.13;;
52668;SDS011;59898;52.786;6.892;2022-09-23T14:44:33;10.70;;;7.45;;
52668;SDS011;59898;52.786;6.892;2022-09-23T14:47:59;12.60;;;7.35;;
52668;SDS011;59898;52.786;6.892;2022-09-23T14:55:16;13.13;;;7.32;;
52668;SDS011;59898;52.786;6.892;2022-09-23T14:58:41;11.77;;;6.85;;
52668;SDS011;59898;52.786;6.892;2022-09-23T15:05:50;9.35;;;7.43;;
52668;SDS011;59898;52.786;6.892;2022-09-23T15:09:27;10.80;;;7.38;;
52668;SDS011;59898;52.786;6.892;2022-09-23T15:13:00;10.57;;;6.75;;
52668;SDS011;59898;52.786;6.892;2022-09-23T15:16:25;9.75;;;5.80;;
52668;SDS011;59898;52.786;6.892;2022-09-23T15:19:49;10.68;;;6.38;;
52668;SDS011;59898;52.786;6.892;2022-09-23T15:27:00;9.10;;;6.22;;
52668;SDS011;59898;52.786;6.892;2022-09-23T15:30:21;8.70;;;6.70;;
52668;SDS011;59898;52.786;6.892;2022-09-23T15:33:43;7.63;;;5.55;;
52668;SDS011;59898;52.786;6.892;2022-09-23T15:37:04;11.13;;;6.20;;
52668;SDS011;59898;52.786;6.892;2022-09-23T15:43:51;7.80;;;5.85;;
52668;SDS011;59898;52.786;6.892;2022-09-23T15:50:38;12.10;;;7.10;;
52668;SDS011;59898;52.786;6.892;2022-09-23T15:54:01;10.13;;;6.28;;
52668;SDS011;59898;52.786;6.892;2022-09-23T15:57:23;8.80;;;6.10;;
52668;SDS011;59898;52.786;6.892;2022-09-23T16:00:45;20.35;;;14.57;;
52668;SDS011;59898;52.786;6.892;2022-09-23T16:04:08;12.75;;;8.68;;
52668;SDS011;59898;52.786;6.892;2022-09-23T16:07:30;11.60;;;5.97;;
52668;SDS011;59898;52.786;6.892;2022-09-23T16:10:51;10.55;;;5.55;;
52668;SDS011;59898;52.786;6.892;2022-09-23T16:14:14;8.77;;;6.18;;
52668;SDS011;59898;52.786;6.892;2022-09-23T16:17:36;11.50;;;5.78;;
52668;SDS011;59898;52.786;6.892;2022-09-23T16:20:57;7.47;;;5.28;;
52668;SDS011;59898;52.786;6.892;2022-09-23T16:24:18;9.05;;;6.22;;
52668;SDS011;59898;52.786;6.892;2022-09-23T16:27:39;10.32;;;6.75;;
52668;SDS011;59898;52.786;6.892;2022-09-23T16:30:59;8.27;;;6.03;;
52668;SDS011;59898;52.786;6.892;2022-09-23T16:34:20;8.13;;;6.25;;
52668;SDS011;59898;52.786;6.892;2022-09-23T16:37:41;9.00;;;6.50;;
52668;SDS011;59898;52.786;6.892;2022-09-23T16:41:05;12.25;;;6.50;;
52668;SDS011;59898;52.786;6.892;2022-09-23T16:44:26;8.50;;;7.00;;
52668;SDS011;59898;52.786;6.892;2022-09-23T16:47:48;8.38;;;6.75;;
52668;SDS011;59898;52.786;6.892;2022-09-23T16:54:34;12.20;;;8.60;;
52668;SDS011;59898;52.786;6.892;2022-09-23T16:57:56;14.48;;;7.85;;
52668;SDS011;59898;52.786;6.892;2022-09-23T17:01:21;13.30;;;9.32;;
52668;SDS011;59898;52.786;6.892;2022-09-23T17:05:01;10.98;;;7.30;;
52668;SDS011;59898;52.786;6.892;2022-09-23T17:08:22;10.77;;;8.02;;
52668;SDS011;59898;52.786;6.892;2022-09-23T17:11:43;10.18;;;7.93;;
52668;SDS011;59898;52.786;6.892;2022-09-23T17:15:06;13.95;;;9.10;;
52668;SDS011;59898;52.786;6.892;2022-09-23T17:18:28;13.83;;;8.70;;
52668;SDS011;59898;52.786;6.892;2022-09-23T17:21:49;13.80;;;9.00;;
52668;SDS011;59898;52.786;6.892;2022-09-23T17:25:11;14.50;;;9.30;;
52668;SDS011;59898;52.786;6.892;2022-09-23T17:28:32;12.13;;;8.95;;
52668;SDS011;59898;52.786;6.892;2022-09-23T17:31:53;12.27;;;7.95;;
52668;SDS011;59898;52.786;6.892;2022-09-23T17:35:14;10.93;;;8.57;;
52668;SDS011;59898;52.786;6.892;2022-09-23T17:38:35;12.55;;;8.63;;
52668;SDS011;59898;52.786;6.892;2022-09-23T17:41:58;13.27;;;8.98;;
52668;SDS011;59898;52.786;6.892;2022-09-23T17:45:18;13.57;;;9.10;;
52668;SDS011;59898;52.786;6.892;2022-09-23T17:48:39;15.13;;;8.45;;
52668;SDS011;59898;52.786;6.892;2022-09-23T17:52:03;12.05;;;9.57;;
52668;SDS011;59898;52.786;6.892;2022-09-23T17:55:24;11.15;;;8.50;;
52668;SDS011;59898;52.786;6.892;2022-09-23T17:58:46;12.88;;;9.50;;
52668;SDS011;59898;52.786;6.892;2022-09-23T18:02:08;11.77;;;8.53;;
52668;SDS011;59898;52.786;6.892;2022-09-23T18:05:29;11.60;;;8.67;;
52668;SDS011;59898;52.786;6.892;2022-09-23T18:08:50;13.40;;;9.07;;
52668;SDS011;59898;52.786;6.892;2022-09-23T18:12:11;11.25;;;8.75;;
52668;SDS011;59898;52.786;6.892;2022-09-23T18:15:34;13.57;;;10.43;;
52668;SDS011;59898;52.786;6.892;2022-09-23T18:18:56;12.30;;;9.53;;
52668;SDS011;59898;52.786;6.892;2022-09-23T18:22:19;11.43;;;8.82;;
52668;SDS011;59898;52.786;6.892;2022-09-23T18:25:39;10.38;;;8.57;;
52668;SDS011;59898;52.786;6.892;2022-09-23T18:29:00;10.55;;;8.68;;
52668;SDS011;59898;52.786;6.892;2022-09-23T18:32:21;10.98;;;9.38;;
52668;SDS011;59898;52.786;6.892;2022-09-23T18:35:41;10.02;;;8.82;;
52668;SDS011;59898;52.786;6.892;2022-09-23T18:39:02;13.27;;;9.50;;
52668;SDS011;59898;52.786;6.892;2022-09-23T18:42:23;11.35;;;9.38;;
52668;SDS011;59898;52.786;6.892;2022-09-23T18:45:55;10.53;;;7.97;;
52668;SDS011;59898;52.786;6.892;2022-09-23T18:49:17;10.75;;;8.55;;
52668;SDS011;59898;52.786;6.892;2022-09-23T18:52:57;13.13;;;9.25;;
52668;SDS011;59898;52.786;6.892;2022-09-23T18:56:18;10.73;;;8.95;;
52668;SDS011;59898;52.786;6.892;2022-09-23T18:59:40;11.02;;;9.10;;
52668;SDS011;59898;52.786;6.892;2022-09-23T19:03:00;11.40;;;8.85;;
52668;SDS011;59898;52.786;6.892;2022-09-23T19:06:21;13.60;;;9.18;;
52668;SDS011;59898;52.786;6.892;2022-09-23T19:09:42;14.00;;;10.75;;
52668;SDS011;59898;52.786;6.892;2022-09-23T19:13:03;13.38;;;10.23;;
52668;SDS011;59898;52.786;6.892;2022-09-23T19:16:23;13.32;;;9.30;;
52668;SDS011;59898;52.786;6.892;2022-09-23T19:19:44;14.27;;;9.80;;
52668;SDS011;59898;52.786;6.892;2022-09-23T19:23:05;14.77;;;9.93;;
52668;SDS011;59898;52.786;6.892;2022-09-23T19:26:26;11.60;;;9.93;;
52668;SDS011;59898;52.786;6.892;2022-09-23T19:29:50;13.80;;;10.68;;
52668;SDS011;59898;52.786;6.892;2022-09-23T19:33:10;16.00;;;9.90;;
52668;SDS011;59898;52.786;6.892;2022-09-23T19:36:32;14.13;;;11.27;;
52668;SDS011;59898;52.786;6.892;2022-09-23T19:39:54;13.40;;;9.32;;
52668;SDS011;59898;52.786;6.892;2022-09-23T19:43:14;11.32;;;9.35;;
52668;SDS011;59898;52.786;6.892;2022-09-23T19:46:36;13.10;;;9.57;;
52668;SDS011;59898;52.786;6.892;2022-09-23T19:49:59;12.40;;;9.80;;
52668;SDS011;59898;52.786;6.892;2022-09-23T19:53:20;17.08;;;9.70;;
52668;SDS011;59898;52.786;6.892;2022-09-23T19:56:40;13.27;;;10.63;;
52668;SDS011;59898;52.786;6.892;2022-09-23T20:00:01;16.52;;;11.95;;
52668;SDS011;59898;52.786;6.892;2022-09-23T20:03:23;14.67;;;10.43;;
52668;SDS011;59898;52.786;6.892;2022-09-23T20:06:44;14.95;;;11.60;;
52668;SDS011;59898;52.786;6.892;2022-09-23T20:10:09;18.63;;;13.55;;
52668;SDS011;59898;52.786;6.892;2022-09-23T20:13:30;15.45;;;12.68;;
52668;SDS011;59898;52.786;6.892;2022-09-23T20:16:52;18.93;;;13.27;;
52668;SDS011;59898;52.786;6.892;2022-09-23T20:20:13;17.83;;;13.07;;
52668;SDS011;59898;52.786;6.892;2022-09-23T20:23:35;34.22;;;28.77;;
52668;SDS011;59898;52.786;6.892;2022-09-23T20:26:55;17.10;;;14.93;;
52668;SDS011;59898;52.786;6.892;2022-09-23T20:30:28;18.50;;;16.13;;
52668;SDS011;59898;52.786;6.892;2022-09-23T20:33:49;20.48;;;15.20;;
52668;SDS011;59898;52.786;6.892;2022-09-23T20:37:10;22.17;;;16.38;;
52668;SDS011;59898;52.786;6.892;2022-09-23T20:40:31;19.15;;;16.10;;
52668;SDS011;59898;52.786;6.892;2022-09-23T20:43:53;19.48;;;16.67;;
52668;SDS011;59898;52.786;6.892;2022-09-23T20:47:15;18.67;;;15.07;;
52668;SDS011;59898;52.786;6.892;2022-09-23T20:50:36;22.17;;;18.25;;
52668;SDS011;59898;52.786;6.892;2022-09-23T20:53:58;22.77;;;17.58;;
52668;SDS011;59898;52.786;6.892;2022-09-23T20:57:19;18.58;;;16.13;;
52668;SDS011;59898;52.786;6.892;2022-09-23T21:00:39;23.35;;;18.83;;
52668;SDS011;59898;52.786;6.892;2022-09-23T21:04:01;22.60;;;19.13;;
52668;SDS011;59898;52.786;6.892;2022-09-23T21:07:26;24.25;;;18.15;;
52668;SDS011;59898;52.786;6.892;2022-09-23T21:10:54;23.20;;;19.40;;
52668;SDS011;59898;52.786;6.892;2022-09-23T21:14:15;24.90;;;19.92;;
52668;SDS011;59898;52.786;6.892;2022-09-23T21:17:36;24.05;;;20.15;;
52668;SDS011;59898;52.786;6.892;2022-09-23T21:20:57;23.52;;;17.77;;
52668;SDS011;59898;52.786;6.892;2022-09-23T21:24:18;20.23;;;18.02;;
52668;SDS011;59898;52.786;6.892;2022-09-23T21:27:40;26.38;;;19.83;;
52668;SDS011;59898;52.786;6.892;2022-09-23T21:31:01;26.70;;;17.83;;
52668;SDS011;59898;52.786;6.892;2022-09-23T21:34:24;21.25;;;18.95;;
52668;SDS011;59898;52.786;6.892;2022-09-23T21:37:47;23.83;;;20.20;;
52668;SDS011;59898;52.786;6.892;2022-09-23T21:41:09;27.08;;;19.75;;
52668;SDS011;59898;52.786;6.892;2022-09-23T21:44:30;26.92;;;21.58;;
52668;SDS011;59898;52.786;6.892;2022-09-23T21:47:51;22.38;;;19.10;;
52668;SDS011;59898;52.786;6.892;2022-09-23T21:51:13;24.05;;;20.05;;
52668;SDS011;59898;52.786;6.892;2022-09-23T21:54:38;25.15;;;19.63;;
52668;SDS011;59898;52.786;6.892;2022-09-23T21:57:59;27.08;;;19.98;;
52668;SDS011;59898;52.786;6.892;2022-09-23T22:01:21;20.63;;;18.48;;
52668;SDS011;59898;52.786;6.892;2022-09-23T22:04:44;24.35;;;20.27;;
52668;SDS011;59898;52.786;6.892;2022-09-23T22:08:04;23.58;;;19.70;;
52668;SDS011;59898;52.786;6.892;2022-09-23T22:15:08;24.73;;;19.25;;
52668;SDS011;59898;52.786;6.892;2022-09-23T22:18:29;26.48;;;20.77;;
52668;SDS011;59898;52.786;6.892;2022-09-23T22:21:50;24.60;;;21.05;;
52668;SDS011;59898;52.786;6.892;2022-09-23T22:25:12;28.80;;;22.60;;
52668;SDS011;59898;52.786;6.892;2022-09-23T22:28:33;25.20;;;22.40;;